Time;durP1;ratioP1;P1;durP2;ratioP2;P2;SDS_P1;SDS_P2;PMS_P1;PMS_P2;Temp;Humidity;BMP_temperature;BMP_pressure;BME280_temperature;BME280_humidity;BME280_pressure;Samples;Min_cycle;Max_cycle;Signal;HPM_P1;HPM_P2
2022/11/19 00:00:44;;;;;;;12.10;8.90;;;-1.70;1.00;;;;;;6169357;23;20197;-84
2022/11/19 00:03:11;;;;;;;11.13;7.60;;;-1.70;99.90;;;;;;6170217;23;20184;-84
2022/11/19 00:05:41;;;;;;;10.57;7.07;;;-1.70;91.20;;;;;;6170135;23;20183;-85
2022/11/19 00:08:09;;;;;;;18.23;6.80;;;-1.40;83.00;;;;;;6169740;23;20228;-83
2022/11/19 00:10:36;;;;;;;9.77;6.90;;;-1.50;1.00;;;;;;6170106;23;20188;-84
2022/11/19 00:13:02;;;;;;;16.60;6.85;;;-1.40;1.00;;;;;;6170466;23;20173;-84
2022/11/19 00:15:30;;;;;;;9.18;7.20;;;-1.40;1.00;;;;;;6169935;23;20174;-85
2022/11/19 00:17:59;;;;;;;11.60;8.82;;;-1.60;99.90;;;;;;6171324;23;20196;-84
2022/11/19 00:20:26;;;;;;;14.18;9.02;;;-1.50;99.90;;;;;;6169203;23;20646;-83
2022/11/19 00:22:55;;;;;;;12.45;7.85;;;-1.80;1.00;;;;;;6169862;23;20181;-85
2022/11/19 00:25:24;;;;;;;14.57;9.65;;;-1.90;1.00;;;;;;6169040;23;20195;-85
2022/11/19 00:27:51;;;;;;;10.00;8.25;;;;;;;;;;6172406;23;20212;-86
2022/11/19 00:30:19;;;;;;;13.23;8.73;;;-1.60;99.90;;;;;;6167997;23;20181;-84
2022/11/19 00:32:46;;;;;;;14.32;9.93;;;-1.60;99.90;;;;;;6168262;23;20208;-84
2022/11/19 00:35:15;;;;;;;15.98;10.10;;;-1.80;1.00;;;;;;6168490;23;20213;-85
2022/11/19 00:37:42;;;;;;;18.02;9.60;;;-1.90;1.00;;;;;;6166818;23;20262;-84
2022/11/19 00:40:10;;;;;;;14.18;9.43;;;;;;;;;;6167975;23;20241;-85
2022/11/19 00:42:37;;;;;;;15.77;9.98;;;-1.60;1.00;;;;;;6169866;23;20237;-85
2022/11/19 00:45:06;;;;;;;16.33;11.65;;;-1.90;99.90;;;;;;6168791;23;20210;-85
2022/11/19 00:47:32;;;;;;;14.75;11.73;;;-1.90;99.90;;;;;;6168561;23;20206;-84
2022/11/19 00:50:00;;;;;;;21.40;11.32;;;;;;;;;;6168788;23;20205;-85
2022/11/19 00:52:28;;;;;;;15.45;11.35;;;-1.80;99.90;;;;;;6168091;23;20178;-84
2022/11/19 00:54:55;;;;;;;14.80;9.68;;;-1.90;1.00;;;;;;6165612;23;20557;-84
2022/11/19 00:57:21;;;;;;;20.45;12.70;;;-1.80;81.50;;;;;;6164561;23;20277;-84
2022/11/19 00:59:48;;;;;;;20.60;11.73;;;-1.80;92.90;;;;;;6168360;23;20255;-84
2022/11/19 01:02:15;;;;;;;18.02;11.80;;;-1.90;1.00;;;;;;6169317;23;20181;-85
2022/11/19 01:04:42;;;;;;;19.83;11.98;;;-1.90;99.90;;;;;;6174890;23;20201;-85
2022/11/19 01:07:08;;;;;;;24.67;12.80;;;-1.90;1.00;;;;;;6171899;23;20201;-85
2022/11/19 01:09:37;;;;;;;23.15;12.35;;;-2.20;1.00;;;;;;6170659;23;20181;-83
2022/11/19 01:12:04;;;;;;;20.08;12.07;;;-2.10;1.00;;;;;;6178436;23;20188;-84
2022/11/19 01:14:30;;;;;;;19.10;12.23;;;-1.70;49.00;;;;;;6181415;23;20178;-83
2022/11/19 01:16:57;;;;;;;21.00;12.80;;;-2.10;99.90;;;;;;6178157;23;20207;-84
2022/11/19 01:19:24;;;;;;;24.90;13.60;;;-2.10;99.90;;;;;;6173676;23;20209;-84
2022/11/19 01:21:51;;;;;;;23.13;13.55;;;-2.10;99.90;;;;;;6175708;23;20249;-83
2022/11/19 01:24:18;;;;;;;15.13;11.77;;;-2.40;1.00;;;;;;6182167;23;20188;-83
2022/11/19 01:35:34;;;;;;;21.65;11.65;;;;;;;;;;6102763;23;20177;-88
2022/11/19 01:41:00;;;;;;;17.55;12.77;;;;;;;;;;6166756;23;20180;-88
2022/11/19 01:44:04;;;;;;;19.17;11.13;;;-2.10;99.90;;;;;;6167405;23;20173;-88
2022/11/19 01:47:03;;;;;;;16.00;11.05;;;-2.10;1.00;;;;;;6162927;23;20188;-88
2022/11/19 01:55:25;;;;;;;15.10;10.82;;;-2.00;1.00;;;;;;6159783;23;20177;-87
2022/11/19 01:58:02;;;;;;;20.48;11.85;;;-2.00;1.00;;;;;;6163695;23;20199;-86
2022/11/19 02:00:37;;;;;;;17.65;10.80;;;;;;;;;;6163347;23;20509;-87
2022/11/19 02:03:17;;;;;;;18.42;11.98;;;;;;;;;;6163481;23;20216;-89
2022/11/19 02:05:45;;;;;;;13.10;10.32;;;;;;;;;;6164350;23;20172;-87
2022/11/19 02:08:54;;;;;;;17.83;11.43;;;-2.10;1.00;;;;;;6164039;23;20200;-87
2022/11/19 02:11:42;;;;;;;19.77;10.70;;;-2.10;1.00;;;;;;6164445;23;20193;-86
2022/11/19 02:14:43;;;;;;;15.90;8.90;;;-2.00;1.00;;;;;;6164322;23;20502;-87
2022/11/19 02:17:41;;;;;;;;;;;;;;;;;;;;;
2022/11/19 02:20:48;;;;;;;10.52;8.63;;;-1.90;99.90;;;;;;6159704;23;20181;-85
2022/11/19 02:23:45;;;;;;;13.23;8.70;;;-1.90;58.50;;;;;;6147998;23;20179;-88
2022/11/19 02:27:00;;;;;;;10.18;7.70;;;-1.90;1.00;;;;;;6184345;23;20168;-87
2022/11/19 02:30:19;;;;;;;13.52;10.13;;;-1.90;99.90;;;;;;6181476;23;20169;-89
2022/11/19 02:33:11;;;;;;;15.48;9.73;;;-1.90;99.90;;;;;;6184157;23;20165;-87
2022/11/19 02:35:56;;;;;;;11.63;8.93;;;-1.80;99.90;;;;;;6183809;23;20146;-86
2022/11/19 02:38:42;;;;;;;13.15;9.55;;;-1.90;99.90;;;;;;6184184;23;20192;-86
2022/11/19 02:47:27;;;;;;;11.90;8.60;;;-2.00;35.60;;;;;;6155455;23;20180;-88
2022/11/19 02:49:59;;;;;;;10.52;8.45;;;-1.80;99.90;;;;;;6165881;23;20177;-87
2022/11/19 02:52:28;;;;;;;13.77;8.70;;;-1.50;99.90;;;;;;6165161;23;20248;-86
2022/11/19 02:54:55;;;;;;;11.15;8.00;;;-1.90;1.00;;;;;;6164166;23;20184;-87
2022/11/19 02:57:22;;;;;;;10.43;8.35;;;-1.60;1.00;;;;;;6163392;23;20740;-87
2022/11/19 03:05:31;;;;;;;11.30;9.07;;;-2.20;1.00;;;;;;6162591;23;20167;-88
2022/11/19 03:07:58;;;;;;;11.93;9.38;;;-2.10;1.00;;;;;;6163375;23;20267;-87
2022/11/19 03:10:29;;;;;;;10.30;7.82;;;-2.10;99.90;;;;;;6162704;23;20180;-88
2022/11/19 03:16:40;;;;;;;11.02;7.97;;;-1.90;99.90;;;;;;6162620;23;20202;-88
2022/11/19 03:18:48;;;;;;;14.25;8.85;;;-2.00;1.00;;;;;;6162503;23;20269;-88
2022/11/19 03:21:21;;;;;;;11.65;9.10;;;-2.20;99.90;;;;;;6162368;23;20308;-88
2022/11/19 03:23:53;;;;;;;14.73;9.38;;;-2.40;99.90;;;;;;6163253;23;20173;-88
2022/11/19 03:26:27;;;;;;;15.50;8.95;;;-2.40;99.90;;;;;;6169421;23;20161;-87
2022/11/19 03:28:57;;;;;;;14.18;9.02;;;-1.90;1.00;;;;;;6159956;23;20233;-85
2022/11/19 03:31:28;;;;;;;11.35;8.38;;;-2.20;1.00;;;;;;6161057;23;20188;-87
2022/11/19 03:34:02;;;;;;;11.38;8.93;;;-2.20;99.90;;;;;;6165746;23;20213;-88
2022/11/19 03:36:34;;;;;;;10.05;7.72;;;-1.70;99.90;;;;;;6162172;23;20183;-88
2022/11/19 03:39:05;;;;;;;13.55;8.25;;;-2.10;90.10;;;;;;6167086;23;20200;-87
2022/11/19 03:41:35;;;;;;;10.50;7.97;;;-2.00;1.00;;;;;;6172140;23;20165;-86
2022/11/19 03:44:09;;;;;;;11.65;7.95;;;-2.10;99.90;;;;;;6177779;23;20169;-87
2022/11/19 03:46:42;;;;;;;10.00;8.00;;;-2.00;99.90;;;;;;6176983;23;20599;-86
2022/11/19 03:55:13;;;;;;;15.07;8.20;;;;;;;;;;6168230;23;20173;-88
2022/11/19 03:57:57;;;;;;;12.05;8.38;;;;;;;;;;6173622;23;20204;-88
2022/11/19 04:00:40;;;;;;;14.00;8.50;;;;;;;;;;6167272;23;20197;-88
2022/11/19 04:03:19;;;;;;;12.75;8.63;;;;;;;;;;6163522;23;20184;-88
2022/11/19 04:11:23;;;;;;;13.80;9.00;;;;;;;;;;6159866;23;20239;-89
2022/11/19 04:13:59;;;;;;;15.05;7.88;;;;;;;;;;6164155;23;20181;-88
2022/11/19 04:16:29;;;;;;;12.50;8.20;;;;;;;;;;6180178;23;20499;-88
2022/11/19 04:19:08;;;;;;;10.45;7.82;;;;;;;;;;6182801;23;20182;-88
2022/11/19 04:21:37;;;;;;;11.00;7.55;;;;;;;;;;6176352;23;20224;-87
2022/11/19 04:24:06;;;;;;;10.00;7.25;;;;;;;;;;6162712;23;20176;-84
2022/11/19 04:26:40;;;;;;;10.68;8.27;;;;;;;;;;6175247;23;20173;-86
2022/11/19 04:29:07;;;;;;;12.93;8.77;;;;;;;;;;6183521;23;20149;-85
2022/11/19 04:31:43;;;;;;;12.07;8.77;;;;;;;;;;6183163;23;20170;-86
2022/11/19 04:34:20;;;;;;;9.00;7.53;;;;;;;;;;6178276;23;20201;-87
2022/11/19 04:37:09;;;;;;;12.30;8.45;;;;;;;;;;6183231;23;20170;-86
2022/11/19 04:40:08;;;;;;;9.05;7.07;;;-2.00;1.00;;;;;;6183475;23;20207;-85
2022/11/19 04:42:56;;;;;;;10.00;7.22;;;;;;;;;;6173382;23;20164;-86
2022/11/19 04:45:52;;;;;;;9.27;6.82;;;;;;;;;;6183428;23;20150;-86
2022/11/19 04:48:28;;;;;;;12.05;8.77;;;;;;;;;;6170779;23;20207;-89
2022/11/19 04:53:59;;;;;;;12.77;8.30;;;;;;;;;;6160993;23;20231;-89
2022/11/19 05:02:20;;;;;;;9.88;7.28;;;;;;;;;;6161799;23;20277;-87
2022/11/19 05:05:01;;;;;;;12.27;8.25;;;;;;;;;;6163335;23;20162;-86
2022/11/19 05:07:45;;;;;;;14.95;8.20;;;;;;;;;;6162434;23;20202;-87
2022/11/19 05:10:29;;;;;;;11.68;7.53;;;;;;;;;;6163063;23;20203;-88
2022/11/19 05:13:09;;;;;;;13.45;7.40;;;;;;;;;;6162962;23;20172;-88
2022/11/19 05:15:59;;;;;;;14.15;8.85;;;;;;;;;;6164346;23;20170;-87
2022/11/19 05:24:03;;;;;;;21.77;9.02;;;;;;;;;;6160389;23;20231;-87
2022/11/19 05:26:37;;;;;;;15.20;9.10;;;;;;;;;;6162924;23;20179;-87
2022/11/19 05:29:24;;;;;;;12.32;8.63;;;;;;;;;;6163148;23;20257;-87
2022/11/19 05:31:57;;;;;;;11.35;8.77;;;;;;;;;;6163147;23;20528;-87
2022/11/19 05:34:45;;;;;;;13.57;9.05;;;;;;;;;;6163115;23;20516;-86
2022/11/19 05:37:21;;;;;;;15.57;7.88;;;;;;;;;;6164016;23;20197;-88
2022/11/19 05:39:54;;;;;;;9.30;8.30;;;;;;;;;;6181499;23;20192;-87
2022/11/19 05:42:24;;;;;;;13.18;9.02;;;;;;;;;;6184572;23;20392;-87
2022/11/19 05:44:53;;;;;;;13.90;10.05;;;;;;;;;;6180758;23;20169;-88
2022/11/19 05:50:47;;;;;;;15.15;9.13;;;;;;;;;;5218041;27;20512;-85
2022/11/19 05:56:14;;;;;;;15.40;8.40;;;;;;;;;;5203263;27;20429;-86
2022/11/19 05:58:43;;;;;;;9.55;8.25;;;;;;;;;;5219713;27;20227;-86
2022/11/19 06:01:30;;;;;;;9.85;8.20;;;;;;;;;;5220058;27;20197;-86
2022/11/19 06:03:57;;;;;;;9.90;8.90;;;-1.90;1.00;;;;;;5217530;22;20229;-85
2022/11/19 06:06:25;;;;;;;12.27;8.60;;;-1.90;1.00;;;;;;5186067;27;20220;-84
2022/11/19 06:08:52;;;;;;;17.80;8.52;;;-2.10;1.00;;;;;;5186294;27;20293;-85
2022/11/19 06:14:00;;;;;;;10.30;8.18;;;-1.90;22.50;;;;;;5184205;27;20252;-85
2022/11/19 06:16:27;;;;;;;10.35;7.05;;;-1.80;99.90;;;;;;5186184;27;20193;-84
2022/11/19 06:18:54;;;;;;;8.88;6.85;;;-1.80;1.00;;;;;;5189045;27;20198;-83
2022/11/19 06:21:21;;;;;;;8.75;7.10;;;-1.80;1.00;;;;;;5180350;27;20266;-82
2022/11/19 06:23:49;;;;;;;12.65;7.80;;;-2.20;99.90;;;;;;5182622;27;20309;-84
2022/11/19 06:26:22;;;;;;;9.15;6.13;;;-1.90;99.90;;;;;;5184010;27;20240;-84
2022/11/19 06:28:49;;;;;;;8.15;6.57;;;-1.90;99.90;;;;;;5184869;27;20804;-84
2022/11/19 06:31:19;;;;;;;10.32;7.07;;;-1.80;99.90;;;;;;5185357;27;20302;-85
2022/11/19 06:33:49;;;;;;;10.65;7.00;;;-2.00;99.90;;;;;;5184826;27;20290;-85
2022/11/19 06:36:16;;;;;;;12.18;7.45;;;-1.80;1.00;;;;;;5185139;27;20258;-85
2022/11/19 06:38:42;;;;;;;8.82;6.80;;;-1.80;1.00;;;;;;5184723;27;20252;-84
2022/11/19 06:41:11;;;;;;;8.38;6.50;;;-2.20;99.90;;;;;;5185296;27;20210;-84
2022/11/19 06:43:38;;;;;;;8.98;5.78;;;-1.70;4.50;;;;;;5193533;27;20241;-83
2022/11/19 06:46:05;;;;;;;8.02;5.35;;;-1.60;1.00;;;;;;5192647;27;20208;-85
2022/11/19 06:48:32;;;;;;;8.07;6.38;;;-2.00;16.80;;;;;;5187091;27;20220;-83
2022/11/19 06:51:00;;;;;;;6.85;6.10;;;;;;;;;;5190698;27;20213;-85
2022/11/19 06:53:27;;;;;;;7.88;5.82;;;-1.70;27.70;;;;;;5191846;27;20217;-86
2022/11/19 06:55:56;;;;;;;11.15;6.43;;;-1.80;15.00;;;;;;5189362;27;20230;-85
2022/11/19 06:58:25;;;;;;;6.28;5.15;;;-1.60;1.00;;;;;;5186417;27;20307;-85
2022/11/19 07:00:52;;;;;;;9.30;6.32;;;-1.50;1.00;;;;;;5175426;27;20611;-85
2022/11/19 07:03:19;;;;;;;10.32;7.13;;;-1.60;1.00;;;;;;5170883;27;20246;-85
2022/11/19 07:05:47;;;;;;;8.57;5.70;;;-1.50;1.00;;;;;;5172037;27;20278;-85
2022/11/19 07:08:14;;;;;;;10.55;7.32;;;-1.70;1.00;;;;;;5171313;27;20208;-85
2022/11/19 07:10:41;;;;;;;8.98;5.50;;;-1.60;10.10;;;;;;5171950;27;20299;-85
2022/11/19 07:13:12;;;;;;;11.75;6.32;;;-1.70;1.00;;;;;;5171572;27;20218;-84
2022/11/19 07:15:41;;;;;;;10.95;6.15;;;-1.40;1.00;;;;;;5177126;27;20197;-85
2022/11/19 07:18:09;;;;;;;9.60;6.35;;;-1.50;1.00;;;;;;5178251;27;20214;-86
2022/11/19 07:20:35;;;;;;;6.07;5.53;;;-1.70;99.90;;;;;;5172976;27;20226;-85
2022/11/19 07:23:08;;;;;;;9.15;5.40;;;-1.80;1.00;;;;;;5171237;27;20285;-85
2022/11/19 07:25:35;;;;;;;10.68;7.22;;;-1.50;1.00;;;;;;5170880;27;20276;-85
2022/11/19 07:28:02;;;;;;;9.48;6.55;;;;;;;;;;5178152;27;20204;-85
2022/11/19 07:30:30;;;;;;;7.13;5.30;;;-2.10;71.60;;;;;;5181879;27;20256;-84
2022/11/19 07:32:58;;;;;;;9.48;6.70;;;-2.00;99.90;;;;;;5181369;27;20205;-83
2022/11/19 07:35:25;;;;;;;14.73;6.35;;;-2.30;12.90;;;;;;5181345;27;20267;-84
2022/11/19 07:37:52;;;;;;;8.32;6.78;;;-1.90;99.90;;;;;;5180727;27;20197;-82
2022/11/19 07:40:22;;;;;;;10.98;7.00;;;-2.60;99.90;;;;;;5181554;27;20276;-83
2022/11/19 07:42:48;;;;;;;7.50;6.00;;;;;;;;;;5181887;27;20232;-82
2022/11/19 07:45:15;;;;;;;10.60;9.50;;;-1.70;99.90;;;;;;5181096;27;20187;-83
2022/11/19 07:47:42;;;;;;;8.55;6.85;;;-1.80;40.90;;;;;;5176625;27;20431;-85
2022/11/19 07:50:11;;;;;;;14.98;7.55;;;-1.80;1.00;;;;;;5173890;27;20197;-84
2022/11/19 07:52:39;;;;;;;11.18;7.28;;;-1.70;1.00;;;;;;5171167;27;20595;-85
2022/11/19 07:55:07;;;;;;;11.77;7.38;;;-1.90;1.00;;;;;;5175731;27;20185;-85
2022/11/19 07:57:35;;;;;;;7.95;5.82;;;-1.80;1.00;;;;;;5177164;27;20274;-84
2022/11/19 08:00:02;;;;;;;7.38;6.63;;;-1.50;75.20;;;;;;5171899;27;20250;-83
2022/11/19 08:02:29;;;;;;;6.47;5.82;;;-1.50;99.90;;;;;;5178215;27;20226;-85
2022/11/19 08:04:55;;;;;;;8.55;6.65;;;-1.60;99.90;;;;;;5174158;27;20250;-84
2022/11/19 08:07:24;;;;;;;7.10;6.28;;;-1.50;99.90;;;;;;5170723;27;20269;-85
2022/11/19 08:09:50;;;;;;;8.15;5.70;;;-1.20;99.90;;;;;;5170429;27;20297;-84
2022/11/19 08:12:17;;;;;;;9.75;5.80;;;-0.90;1.00;;;;;;5168268;27;20206;-85
2022/11/19 08:14:44;;;;;;;6.07;5.47;;;-0.90;99.90;;;;;;5171111;27;20269;-84
2022/11/19 08:19:55;;;;;;;6.13;5.50;;;-1.20;1.00;;;;;;5181180;27;20228;-86
2022/11/19 08:22:24;;;;;;;7.85;5.60;;;-0.80;1.00;;;;;;5181592;27;20267;-83
2022/11/19 08:24:51;;;;;;;8.52;5.43;;;-1.40;1.00;;;;;;5181203;27;20205;-84
2022/11/19 08:27:18;;;;;;;7.00;5.20;;;;;;;;;;5181711;27;20203;-83
2022/11/19 08:29:45;;;;;;;8.63;5.20;;;-0.40;1.00;;;;;;5180921;27;20186;-84
2022/11/19 08:32:12;;;;;;;7.93;6.00;;;;;;;;;;5180785;27;20439;-83
2022/11/19 08:34:39;;;;;;;6.90;6.10;;;-0.70;1.00;;;;;;5181452;27;20196;-83
2022/11/19 08:37:06;;;;;;;7.07;6.07;;;-0.50;81.90;;;;;;5180017;27;20207;-85
2022/11/19 08:39:34;;;;;;;7.72;5.25;;;-0.50;99.90;;;;;;5177202;27;20230;-84
2022/11/19 08:44:45;;;;;;;10.20;5.50;;;-0.30;99.90;;;;;;5173299;27;20191;-85
2022/11/19 08:47:12;;;;;;;6.70;5.22;;;-0.40;67.30;;;;;;5169759;27;20206;-85
2022/11/19 08:49:39;;;;;;;7.05;5.40;;;-0.50;1.00;;;;;;5176045;27;20226;-84
2022/11/19 08:52:06;;;;;;;7.72;6.05;;;-0.40;1.00;;;;;;5167495;27;20347;-83
2022/11/19 08:54:35;;;;;;;9.02;5.90;;;0.10;99.90;;;;;;5164918;27;20223;-84
2022/11/19 08:57:04;;;;;;;6.32;5.68;;;-0.50;1.00;;;;;;5168523;27;20267;-86
2022/11/19 08:59:31;;;;;;;7.10;6.10;;;-0.20;22.70;;;;;;5169193;27;20222;-84
2022/11/19 09:01:58;;;;;;;7.43;6.28;;;0.20;1.00;;;;;;5177047;27;20191;-82
2022/11/19 09:04:25;;;;;;;9.57;6.50;;;;;;;;;;5179183;27;20208;-84
2022/11/19 09:06:51;;;;;;;5.85;4.50;;;0.20;99.90;;;;;;5178940;27;20204;-85
2022/11/19 09:09:19;;;;;;;5.20;4.70;;;0.20;1.00;;;;;;5173135;27;20195;-85
2022/11/19 09:11:47;;;;;;;8.13;4.88;;;;;;;;;;5170903;27;20196;-84
2022/11/19 09:14:14;;;;;;;10.63;7.75;;;0.30;1.00;;;;;;5169567;27;20224;-84
2022/11/19 09:16:41;;;;;;;7.03;5.65;;;0.60;1.00;;;;;;5169048;27;20279;-84
2022/11/19 09:19:08;;;;;;;5.57;5.05;;;0.50;5.80;;;;;;5168639;27;20219;-84
2022/11/19 09:21:35;;;;;;;6.32;5.20;;;0.40;1.00;;;;;;5162471;27;20682;-85
2022/11/19 09:24:02;;;;;;;8.80;5.20;;;0.40;1.00;;;;;;5170234;27;20219;-86
2022/11/19 09:26:28;;;;;;;19.00;5.30;;;0.30;1.00;;;;;;5163764;27;20283;-85
2022/11/19 09:28:56;;;;;;;6.03;4.72;;;0.50;1.00;;;;;;5164731;27;20294;-84
2022/11/19 09:31:23;;;;;;;7.18;5.53;;;0.60;1.00;;;;;;5177433;27;20265;-84
2022/11/19 09:33:53;;;;;;;9.45;6.15;;;0.90;1.00;;;;;;5175360;27;20666;-85
2022/11/19 09:36:20;;;;;;;8.65;6.20;;;0.80;1.00;;;;;;5159418;27;20210;-84
2022/11/19 09:38:48;;;;;;;7.18;5.43;;;0.90;99.90;;;;;;5161385;27;20306;-84
2022/11/19 09:41:29;;;;;;;7.10;4.82;;;1.10;1.00;;;;;;5163858;27;20270;-85
2022/11/19 09:44:06;;;;;;;9.02;5.70;;;1.00;1.00;;;;;;5164573;27;20291;-83
2022/11/19 09:46:41;;;;;;;5.78;5.20;;;1.40;1.00;;;;;;5167527;27;20247;-84
2022/11/19 09:49:11;;;;;;;9.18;4.60;;;1.20;1.00;;;;;;5170328;27;20186;-84
2022/11/19 09:51:41;;;;;;;6.10;4.50;;;1.20;1.00;;;;;;5169431;27;20252;-84
2022/11/19 09:54:15;;;;;;;7.53;4.95;;;1.40;1.00;;;;;;5167530;27;20223;-85
2022/11/19 09:56:44;;;;;;;7.20;3.85;;;1.50;1.00;;;;;;5165936;27;20460;-85
2022/11/19 09:59:20;;;;;;;5.68;4.28;;;1.60;99.90;;;;;;5166223;27;20263;-85
2022/11/19 10:01:47;;;;;;;4.43;3.60;;;1.50;99.90;;;;;;5166597;27;20315;-84
2022/11/19 10:04:23;;;;;;;5.32;4.40;;;1.00;99.90;;;;;;5166421;27;20251;-84
2022/11/19 10:06:59;;;;;;;7.47;5.10;;;1.20;1.00;;;;;;5167588;27;20180;-84
2022/11/19 10:09:37;;;;;;;4.72;3.75;;;1.20;1.00;;;;;;5166372;27;20180;-84
2022/11/19 10:12:18;;;;;;;8.40;4.47;;;1.30;1.00;;;;;;5168687;27;20212;-84
2022/11/19 10:15:14;;;;;;;5.05;3.97;;;1.60;99.90;;;;;;5168937;27;20216;-85
2022/11/19 10:17:53;;;;;;;10.13;4.40;;;1.20;99.90;;;;;;5164106;27;20200;-85
2022/11/19 10:20:54;;;;;;;6.22;4.57;;;1.50;1.00;;;;;;5167170;27;20267;-85
2022/11/19 10:23:30;;;;;;;5.63;4.13;;;1.30;99.90;;;;;;5166758;27;20220;-85
2022/11/19 10:26:03;;;;;;;9.93;3.80;;;1.30;1.00;;;;;;5166469;27;20184;-86
2022/11/19 10:28:35;;;;;;;4.35;3.95;;;1.20;1.00;;;;;;5167605;27;20283;-84
2022/11/19 10:31:08;;;;;;;6.00;4.97;;;1.20;1.00;;;;;;5175752;27;20180;-83
2022/11/19 10:33:39;;;;;;;4.93;3.65;;;1.50;1.00;;;;;;5171218;27;20585;-84
2022/11/19 10:36:10;;;;;;;8.90;5.25;;;2.00;99.90;;;;;;5170361;27;20186;-85
2022/11/19 10:38:42;;;;;;;4.85;3.60;;;1.50;99.90;;;;;;5171197;27;20222;-85
2022/11/19 10:41:14;;;;;;;6.13;3.67;;;1.50;99.90;;;;;;5169902;27;20267;-85
2022/11/19 10:43:47;;;;;;;4.70;3.70;;;1.60;99.90;;;;;;5169966;27;20258;-84
2022/11/19 10:46:19;;;;;;;3.33;3.03;;;1.50;99.90;;;;;;5170943;27;20229;-85
2022/11/19 10:48:50;;;;;;;7.75;4.18;;;1.50;62.70;;;;;;5170909;27;20208;-85
2022/11/19 10:51:23;;;;;;;4.05;3.15;;;1.90;99.90;;;;;;5172250;27;20219;-84
2022/11/19 10:53:51;;;;;;;5.60;4.22;;;1.70;1.00;;;;;;5173579;27;20223;-85
2022/11/19 10:56:21;;;;;;;8.50;3.95;;;1.60;1.00;;;;;;5171953;27;20199;-85
2022/11/19 10:58:52;;;;;;;4.43;3.72;;;1.60;47.40;;;;;;5173209;27;20231;-85
2022/11/19 11:01:26;;;;;;;4.32;3.53;;;1.60;99.90;;;;;;5171482;27;20212;-85
2022/11/19 11:04:04;;;;;;;4.55;3.65;;;1.80;1.00;;;;;;5174142;27;20731;-83
2022/11/19 11:06:50;;;;;;;3.45;3.15;;;1.90;1.00;;;;;;5177400;27;20244;-84
2022/11/19 11:09:29;;;;;;;3.05;2.85;;;1.80;1.00;;;;;;5172528;27;20279;-85
2022/11/19 11:14:52;;;;;;;3.58;3.28;;;2.00;1.00;;;;;;5170666;27;20191;-84
2022/11/19 11:17:24;;;;;;;2.92;2.55;;;2.30;99.90;;;;;;5169929;27;20207;-85
2022/11/19 11:19:59;;;;;;;4.03;3.28;;;2.00;1.00;;;;;;5168549;27;20204;-85
2022/11/19 11:22:27;;;;;;;3.80;3.20;;;2.10;99.90;;;;;;5175225;27;20222;-84
2022/11/19 11:24:54;;;;;;;4.38;3.30;;;2.10;99.90;;;;;;5168600;27;20231;-84
2022/11/19 11:27:24;;;;;;;3.35;2.88;;;2.50;99.90;;;;;;5166220;27;20260;-84
2022/11/19 11:30:05;;;;;;;7.55;3.33;;;2.40;99.90;;;;;;5167138;27;20204;-83
2022/11/19 11:32:33;;;;;;;8.50;4.50;;;2.10;1.00;;;;;;5167715;27;20254;-84
2022/11/19 11:35:00;;;;;;;16.33;6.10;;;3.00;99.90;;;;;;5167867;27;20204;-84
2022/11/19 11:37:28;;;;;;;5.93;5.43;;;1.70;99.90;;;;;;5169310;27;20263;-84
2022/11/19 11:39:56;;;;;;;4.05;3.58;;;2.00;99.90;;;;;;5168994;27;20302;-84
2022/11/19 11:42:27;;;;;;;6.90;3.83;;;2.00;99.90;;;;;;5169124;27;20264;-86
2022/11/19 11:44:56;;;;;;;3.97;3.30;;;2.00;99.90;;;;;;5169930;27;20195;-84
2022/11/19 11:47:26;;;;;;;5.55;3.70;;;1.90;99.90;;;;;;5169695;27;20219;-85
2022/11/19 11:50:05;;;;;;;6.13;5.47;;;1.90;1.00;;;;;;5168748;27;20192;-84
2022/11/19 11:52:36;;;;;;;7.22;4.55;;;1.90;1.00;;;;;;5168901;27;20246;-85
2022/11/19 11:55:05;;;;;;;7.18;4.55;;;1.70;99.90;;;;;;5168625;27;20717;-85
2022/11/19 11:57:34;;;;;;;5.25;4.55;;;1.50;99.90;;;;;;5172748;27;20233;-85
2022/11/19 12:00:02;;;;;;;4.13;3.60;;;2.20;99.90;;;;;;5174582;27;20212;-85
2022/11/19 12:08:08;;;;;;;7.75;4.82;;;;;;;;;;1510301;25;20704;-85
2022/11/19 12:14:10;;;;;;;7.88;4.15;;;2.20;1.00;;;;;;5159052;27;20240;-87
2022/11/19 12:17:25;;;;;;;6.65;5.82;;;2.20;1.00;;;;;;5150383;27;20208;-86
2022/11/19 12:20:29;;;;;;;5.43;4.13;;;2.20;1.00;;;;;;5080602;28;20355;-86
2022/11/19 12:23:44;;;;;;;7.60;5.47;;;2.20;1.00;;;;;;5082494;28;20250;-86
2022/11/19 12:26:46;;;;;;;9.27;5.53;;;2.30;1.00;;;;;;5078736;28;20214;-86
2022/11/19 12:29:39;;;;;;;10.18;6.45;;;2.30;1.00;;;;;;5105404;27;20257;-86
2022/11/19 12:32:34;;;;;;;5.80;5.20;;;2.40;1.00;;;;;;5142786;27;20197;-86
2022/11/19 12:38:46;;;;;;;6.90;5.15;;;2.50;1.00;;;;;;5114837;27;20206;-86
2022/11/19 12:41:42;;;;;;;5.70;4.85;;;2.50;1.00;;;;;;5138969;27;20266;-86
2022/11/19 12:47:43;;;;;;;4.93;4.10;;;2.50;1.00;;;;;;5155282;27;20200;-85
2022/11/19 12:50:28;;;;;;;4.97;4.50;;;;;;;;;;5149562;27;20201;-87
2022/11/19 12:53:44;;;;;;;7.43;5.80;;;2.30;1.00;;;;;;5139283;27;20269;-85
2022/11/19 12:57:05;;;;;;;6.07;5.38;;;2.50;1.00;;;;;;5138768;27;20185;-86
2022/11/19 13:00:06;;;;;;;9.07;5.53;;;2.40;1.00;;;;;;5138051;27;20287;-86
2022/11/19 13:02:49;;;;;;;10.88;5.85;;;2.50;1.00;;;;;;5142045;27;20234;-85
2022/11/19 13:05:31;;;;;;;5.13;4.57;;;2.40;1.00;;;;;;5143476;27;20208;-85
2022/11/19 13:08:33;;;;;;;5.93;4.38;;;2.50;1.00;;;;;;5142844;27;20230;-86
2022/11/19 13:11:35;;;;;;;6.53;4.05;;;2.60;1.00;;;;;;5142981;27;20224;-85
2022/11/19 13:14:25;;;;;;;7.20;4.70;;;2.70;1.00;;;;;;5142120;27;20216;-85
2022/11/19 13:19:52;;;;;;;;;;;;;;;;;;;;;
2022/11/19 13:25:38;;;;;;;6.95;5.22;;;2.90;40.10;;;;;;5139554;27;20228;-86
2022/11/19 13:28:33;;;;;;;7.57;5.50;;;2.60;69.10;;;;;;5141685;27;20288;-86
2022/11/19 13:34:09;;;;;;;6.20;4.93;;;;;;;;;;5118338;27;20252;-86
2022/11/19 13:36:55;;;;;;;6.38;5.78;;;2.50;84.60;;;;;;5155281;27;20188;-86
2022/11/19 13:40:23;;;;;;;6.20;4.80;;;2.50;99.90;;;;;;5153973;27;20184;-86
2022/11/19 13:46:11;;;;;;;7.90;6.28;;;2.10;99.90;;;;;;5158775;27;20192;-85
2022/11/19 13:49:05;;;;;;;10.00;6.40;;;1.90;1.00;;;;;;5157545;27;20176;-87
2022/11/19 13:51:49;;;;;;;7.10;5.93;;;1.80;99.90;;;;;;5149217;28;20215;-86
2022/11/19 14:07:20;;;;;;;8.35;6.18;;;2.10;1.00;;;;;;5151672;28;20208;-86
2022/11/19 14:10:11;;;;;;;8.52;5.97;;;1.90;1.00;;;;;;5154911;27;20224;-84
2022/11/19 14:42:30;;;;;;;8.10;5.88;;;1.80;99.90;;;;;;5133421;27;20188;-85
2022/11/19 14:45:33;;;;;;;12.43;6.43;;;1.80;1.00;;;;;;5144685;27;20192;-86
2022/11/19 14:48:20;;;;;;;9.07;6.35;;;;;;;;;;5160859;27;20184;-86
2022/11/19 14:51:09;;;;;;;8.82;5.53;;;;;;;;;;5162385;27;20212;-86
2022/11/19 14:53:39;;;;;;;10.20;6.05;;;;;;;;;;5157549;27;20242;-86
2022/11/19 14:59:34;;;;;;;8.85;6.28;;;1.30;41.40;;;;;;5134567;27;20192;-87
2022/11/19 15:05:23;;;;;;;9.65;6.63;;;;;;;;;;5107575;27;20208;-86
2022/11/19 15:08:51;;;;;;;6.95;6.18;;;0.90;99.90;;;;;;5144830;27;20212;-87
2022/11/19 15:11:19;;;;;;;6.45;5.57;;;;;;;;;;5144919;27;20212;-88
2022/11/19 15:13:53;;;;;;;7.90;6.13;;;;;;;;;;5143775;27;20224;-86
2022/11/19 15:16:33;;;;;;;11.35;8.05;;;0.70;99.90;;;;;;5142729;27;20200;-87
2022/11/19 15:19:24;;;;;;;11.23;7.20;;;0.70;99.90;;;;;;5142318;27;20200;-86
2022/11/19 15:22:44;;;;;;;11.82;8.50;;;0.70;99.90;;;;;;5141166;27;20201;-86
2022/11/19 15:25:27;;;;;;;14.73;9.50;;;0.80;99.90;;;;;;5108869;27;20201;-87
2022/11/19 15:28:39;;;;;;;13.10;8.30;;;0.70;99.90;;;;;;5142426;27;20203;-86
2022/11/19 15:31:51;;;;;;;11.57;8.82;;;0.60;99.90;;;;;;5139822;27;20224;-87
2022/11/19 15:37:53;;;;;;;14.30;9.38;;;0.60;99.90;;;;;;5138294;27;20197;-86
2022/11/19 15:40:41;;;;;;;13.00;9.05;;;0.70;99.90;;;;;;5137957;27;20207;-86
2022/11/19 15:43:19;;;;;;;14.98;8.30;;;0.70;99.90;;;;;;5140667;27;20232;-87
2022/11/19 15:45:59;;;;;;;11.40;8.02;;;0.60;99.90;;;;;;5142634;27;20542;-86
2022/11/19 15:48:40;;;;;;;14.10;8.07;;;0.70;99.90;;;;;;5139695;27;20184;-87
2022/11/19 15:51:16;;;;;;;11.45;7.60;;;0.70;99.90;;;;;;5157208;27;20204;-86
2022/11/19 15:54:12;;;;;;;10.23;7.75;;;0.60;99.90;;;;;;5151077;27;20223;-87
2022/11/19 15:56:54;;;;;;;14.95;8.15;;;0.70;99.90;;;;;;5143191;27;20189;-86
2022/11/19 15:59:31;;;;;;;10.27;7.60;;;;;;;;;;5141431;27;20535;-85
2022/11/19 16:02:05;;;;;;;11.10;7.20;;;;;;;;;;5141576;27;20188;-86
2022/11/19 16:04:39;;;;;;;9.70;7.43;;;0.60;99.90;;;;;;5140988;27;20560;-86
2022/11/19 16:27:11;;;;;;;10.25;6.85;;;0.50;99.90;;;;;;5125095;27;20188;-86
2022/11/19 16:30:36;;;;;;;10.82;7.20;;;0.50;99.90;;;;;;5104748;27;20233;-86
2022/11/19 16:47:16;;;;;;;;;;;;;;;;;;;;;
2022/11/19 16:57:08;;;;;;;9.30;6.60;;;;;;;;;;5132655;27;20177;-86
2022/11/19 17:00:30;;;;;;;8.85;6.80;;;0.60;99.90;;;;;;5156942;27;20709;-86
2022/11/19 17:03:40;;;;;;;11.70;7.20;;;0.60;99.90;;;;;;5140074;27;20257;-86
2022/11/19 17:10:00;;;;;;;11.73;7.63;;;;;;;;;;5127140;27;20196;-86
2022/11/19 17:13:43;;;;;;;11.45;7.82;;;0.60;99.90;;;;;;5140934;27;20248;-86
2022/11/19 17:16:26;;;;;;;10.70;8.43;;;;;;;;;;5084887;27;20507;-86
2022/11/19 17:22:31;;;;;;;9.82;6.65;;;0.70;99.90;;;;;;5143969;27;20207;-86
2022/11/19 17:25:14;;;;;;;10.43;7.18;;;;;;;;;;5143370;27;20273;-86
2022/11/19 17:27:55;;;;;;;11.25;8.48;;;;;;;;;;5148392;27;20214;-86